sensor_id;sensor_type;location;lat;lon;timestamp;P1;durP1;ratioP1;P2;durP2;ratioP2
1651;SDS011;823;49.028;8.454;2023-04-08T00:00:42;5.72;;;2.90;;
1651;SDS011;823;49.028;8.454;2023-04-08T00:05:43;4.60;;;2.90;;
1651;SDS011;823;49.028;8.454;2023-04-08T00:20:44;9.40;;;3.90;;
1651;SDS011;823;49.028;8.454;2023-04-08T00:25:45;7.00;;;3.90;;
1651;SDS011;823;49.028;8.454;2023-04-08T00:30:45;7.50;;;3.50;;
1651;SDS011;823;49.028;8.454;2023-04-08T00:35:46;8.30;;;4.05;;
1651;SDS011;823;49.028;8.454;2023-04-08T00:40:47;6.60;;;3.40;;
1651;SDS011;823;49.028;8.454;2023-04-08T00:45:47;7.60;;;3.70;;
1651;SDS011;823;49.028;8.454;2023-04-08T00:50:48;12.30;;;4.80;;
1651;SDS011;823;49.028;8.454;2023-04-08T00:55:48;11.45;;;4.90;;
1651;SDS011;823;49.028;8.454;2023-04-08T02:26:54;11.20;;;5.90;;
1651;SDS011;823;49.028;8.454;2023-04-08T02:36:57;15.30;;;5.40;;
1651;SDS011;823;49.028;8.454;2023-04-08T02:41:58;13.80;;;6.20;;
1651;SDS011;823;49.028;8.454;2023-04-08T02:46:58;16.40;;;5.80;;
1651;SDS011;823;49.028;8.454;2023-04-08T02:51:58;14.60;;;6.00;;
1651;SDS011;823;49.028;8.454;2023-04-08T03:01:59;11.80;;;6.00;;
1651;SDS011;823;49.028;8.454;2023-04-08T03:17:00;17.05;;;5.80;;
1651;SDS011;823;49.028;8.454;2023-04-08T03:22:00;9.75;;;5.05;;
1651;SDS011;823;49.028;8.454;2023-04-08T03:27:01;13.50;;;6.50;;
1651;SDS011;823;49.028;8.454;2023-04-08T03:37:01;12.50;;;5.30;;
1651;SDS011;823;49.028;8.454;2023-04-08T03:57:03;6546.80;;;6.00;;
1651;SDS011;823;49.028;8.454;2023-04-08T04:27:04;22.70;;;7.77;;
1651;SDS011;823;49.028;8.454;2023-04-08T04:32:05;14.00;;;6.30;;
1651;SDS011;823;49.028;8.454;2023-04-08T04:37:05;16.30;;;6.80;;
1651;SDS011;823;49.028;8.454;2023-04-08T04:42:06;16.17;;;6.80;;
1651;SDS011;823;49.028;8.454;2023-04-08T04:47:06;22.63;;;10.53;;
1651;SDS011;823;49.028;8.454;2023-04-08T04:52:06;24.35;;;9.57;;
1651;SDS011;823;49.028;8.454;2023-04-08T04:57:07;24.03;;;9.07;;
1651;SDS011;823;49.028;8.454;2023-04-08T05:02:07;23.27;;;9.07;;
1651;SDS011;823;49.028;8.454;2023-04-08T05:07:07;23.70;;;9.37;;
1651;SDS011;823;49.028;8.454;2023-04-08T05:12:08;20.53;;;9.03;;
1651;SDS011;823;49.028;8.454;2023-04-08T05:17:08;25.83;;;9.23;;
1651;SDS011;823;49.028;8.454;2023-04-08T05:22:08;22.20;;;9.23;;
1651;SDS011;823;49.028;8.454;2023-04-08T05:27:09;24.70;;;7.93;;
1651;SDS011;823;49.028;8.454;2023-04-08T05:32:09;26.83;;;8.70;;
1651;SDS011;823;49.028;8.454;2023-04-08T05:37:10;28.02;;;10.65;;
1651;SDS011;823;49.028;8.454;2023-04-08T05:42:10;25.40;;;8.80;;
1651;SDS011;823;49.028;8.454;2023-04-08T05:47:12;21.27;;;8.80;;
1651;SDS011;823;49.028;8.454;2023-04-08T05:52:13;31.30;;;10.63;;
1651;SDS011;823;49.028;8.454;2023-04-08T05:57:14;28.93;;;9.00;;
1651;SDS011;823;49.028;8.454;2023-04-08T06:02:15;20.70;;;9.10;;
1651;SDS011;823;49.028;8.454;2023-04-08T06:07:16;24.93;;;9.80;;
1651;SDS011;823;49.028;8.454;2023-04-08T06:12:16;24.17;;;8.82;;
1651;SDS011;823;49.028;8.454;2023-04-08T06:17:16;23.98;;;9.73;;
1651;SDS011;823;49.028;8.454;2023-04-08T06:22:17;22.67;;;9.20;;
1651;SDS011;823;49.028;8.454;2023-04-08T06:27:17;24.40;;;9.20;;
1651;SDS011;823;49.028;8.454;2023-04-08T06:32:18;28.93;;;10.70;;
1651;SDS011;823;49.028;8.454;2023-04-08T06:37:18;18.23;;;8.43;;
1651;SDS011;823;49.028;8.454;2023-04-08T06:42:19;22.70;;;9.63;;
1651;SDS011;823;49.028;8.454;2023-04-08T06:47:19;17.37;;;8.43;;
1651;SDS011;823;49.028;8.454;2023-04-08T06:52:19;22.50;;;9.10;;
1651;SDS011;823;49.028;8.454;2023-04-08T06:57:20;26.23;;;8.97;;
1651;SDS011;823;49.028;8.454;2023-04-08T07:02:20;22.48;;;8.90;;
1651;SDS011;823;49.028;8.454;2023-04-08T07:07:21;18.90;;;7.70;;
1651;SDS011;823;49.028;8.454;2023-04-08T07:12:23;21.73;;;8.33;;
1651;SDS011;823;49.028;8.454;2023-04-08T07:17:23;21.90;;;8.60;;
1651;SDS011;823;49.028;8.454;2023-04-08T07:22:23;15.33;;;6.80;;
1651;SDS011;823;49.028;8.454;2023-04-08T07:27:24;14.40;;;6.63;;
1651;SDS011;823;49.028;8.454;2023-04-08T07:32:24;12.77;;;5.80;;
1651;SDS011;823;49.028;8.454;2023-04-08T07:37:25;17.00;;;7.50;;
1651;SDS011;823;49.028;8.454;2023-04-08T07:42:26;17.27;;;7.43;;
1651;SDS011;823;49.028;8.454;2023-04-08T07:47:26;18.77;;;7.37;;
1651;SDS011;823;49.028;8.454;2023-04-08T07:52:28;15.87;;;7.00;;
1651;SDS011;823;49.028;8.454;2023-04-08T07:57:31;12.67;;;6.57;;
1651;SDS011;823;49.028;8.454;2023-04-08T08:02:32;17.60;;;8.07;;
1651;SDS011;823;49.028;8.454;2023-04-08T08:07:33;12.00;;;6.50;;
1651;SDS011;823;49.028;8.454;2023-04-08T08:12:33;15.00;;;7.53;;
1651;SDS011;823;49.028;8.454;2023-04-08T08:17:33;18.52;;;7.80;;
1651;SDS011;823;49.028;8.454;2023-04-08T08:22:34;13.98;;;7.28;;
1651;SDS011;823;49.028;8.454;2023-04-08T08:27:34;18.57;;;9.03;;
1651;SDS011;823;49.028;8.454;2023-04-08T08:32:35;17.23;;;8.13;;
1651;SDS011;823;49.028;8.454;2023-04-08T08:37:36;20.97;;;7.90;;
1651;SDS011;823;49.028;8.454;2023-04-08T08:42:36;12.07;;;6.80;;
1651;SDS011;823;49.028;8.454;2023-04-08T08:47:38;17.50;;;8.10;;
1651;SDS011;823;49.028;8.454;2023-04-08T08:52:38;18.75;;;8.30;;
1651;SDS011;823;49.028;8.454;2023-04-08T08:57:38;14.00;;;7.60;;
1651;SDS011;823;49.028;8.454;2023-04-08T09:02:39;12.93;;;7.40;;
1651;SDS011;823;49.028;8.454;2023-04-08T09:07:39;19.63;;;8.10;;
1651;SDS011;823;49.028;8.454;2023-04-08T09:12:52;11.30;;;6.60;;
1651;SDS011;823;49.028;8.454;2023-04-08T09:17:53;14.00;;;7.23;;
1651;SDS011;823;49.028;8.454;2023-04-08T09:22:54;14.88;;;6.97;;
1651;SDS011;823;49.028;8.454;2023-04-08T09:28:01;11.10;;;7.40;;
1651;SDS011;823;49.028;8.454;2023-04-08T09:33:02;11.97;;;6.67;;
1651;SDS011;823;49.028;8.454;2023-04-08T09:38:06;16.40;;;7.73;;
1651;SDS011;823;49.028;8.454;2023-04-08T09:43:06;11.23;;;7.10;;
1651;SDS011;823;49.028;8.454;2023-04-08T09:48:12;15.17;;;6.60;;
1651;SDS011;823;49.028;8.454;2023-04-08T09:53:19;13.57;;;6.90;;
1651;SDS011;823;49.028;8.454;2023-04-08T09:58:31;12.73;;;6.90;;
1651;SDS011;823;49.028;8.454;2023-04-08T10:18:48;13.20;;;7.53;;
1651;SDS011;823;49.028;8.454;2023-04-08T10:23:52;13.90;;;7.27;;
1651;SDS011;823;49.028;8.454;2023-04-08T10:34:21;12.83;;;8.00;;
1651;SDS011;823;49.028;8.454;2023-04-08T10:39:24;25.30;;;7.63;;
1651;SDS011;823;49.028;8.454;2023-04-08T10:44:26;13.77;;;8.00;;
1651;SDS011;823;49.028;8.454;2023-04-08T10:49:32;18.70;;;7.90;;
1651;SDS011;823;49.028;8.454;2023-04-08T10:54:33;13.13;;;7.97;;
1651;SDS011;823;49.028;8.454;2023-04-08T10:59:35;17.27;;;7.83;;
1651;SDS011;823;49.028;8.454;2023-04-08T11:04:40;14.53;;;7.10;;
1651;SDS011;823;49.028;8.454;2023-04-08T11:09:41;11.87;;;7.07;;
1651;SDS011;823;49.028;8.454;2023-04-08T11:14:42;14.70;;;7.57;;
1651;SDS011;823;49.028;8.454;2023-04-08T11:19:42;19.57;;;7.43;;
1651;SDS011;823;49.028;8.454;2023-04-08T11:24:43;13.53;;;6.50;;
1651;SDS011;823;49.028;8.454;2023-04-08T11:29:44;12.60;;;6.97;;
1651;SDS011;823;49.028;8.454;2023-04-08T11:34:44;11.37;;;6.60;;
1651;SDS011;823;49.028;8.454;2023-04-08T11:39:46;13.70;;;6.70;;
1651;SDS011;823;49.028;8.454;2023-04-08T11:44:46;10.95;;;6.70;;
1651;SDS011;823;49.028;8.454;2023-04-08T11:49:47;11.85;;;6.78;;
1651;SDS011;823;49.028;8.454;2023-04-08T11:54:47;13.60;;;7.30;;
1651;SDS011;823;49.028;8.454;2023-04-08T11:59:48;15.87;;;7.57;;
1651;SDS011;823;49.028;8.454;2023-04-08T12:04:48;16.60;;;8.20;;
1651;SDS011;823;49.028;8.454;2023-04-08T12:09:48;13.70;;;8.60;;
1651;SDS011;823;49.028;8.454;2023-04-08T12:14:49;14.50;;;7.70;;
1651;SDS011;823;49.028;8.454;2023-04-08T12:19:49;14.87;;;7.13;;
1651;SDS011;823;49.028;8.454;2023-04-08T12:24:50;14.20;;;7.53;;
1651;SDS011;823;49.028;8.454;2023-04-08T12:29:50;14.97;;;6.67;;
1651;SDS011;823;49.028;8.454;2023-04-08T12:34:52;11.33;;;6.20;;
1651;SDS011;823;49.028;8.454;2023-04-08T12:39:52;13.00;;;8.23;;
1651;SDS011;823;49.028;8.454;2023-04-08T12:44:53;12.77;;;6.87;;
1651;SDS011;823;49.028;8.454;2023-04-08T12:49:53;15.40;;;5.77;;
1651;SDS011;823;49.028;8.454;2023-04-08T12:54:54;15.67;;;7.43;;
1651;SDS011;823;49.028;8.454;2023-04-08T12:59:54;18.17;;;7.97;;
1651;SDS011;823;49.028;8.454;2023-04-08T13:04:55;14.00;;;7.00;;
1651;SDS011;823;49.028;8.454;2023-04-08T13:09:55;11.87;;;7.07;;
1651;SDS011;823;49.028;8.454;2023-04-08T13:14:56;32.43;;;8.07;;
1651;SDS011;823;49.028;8.454;2023-04-08T13:19:57;13.67;;;6.80;;
1651;SDS011;823;49.028;8.454;2023-04-08T13:24:57;12.93;;;7.05;;
1651;SDS011;823;49.028;8.454;2023-04-08T13:29:58;32.73;;;7.83;;
1651;SDS011;823;49.028;8.454;2023-04-08T13:34:58;13.77;;;5.33;;
1651;SDS011;823;49.028;8.454;2023-04-08T13:39:58;12.93;;;5.23;;
1651;SDS011;823;49.028;8.454;2023-04-08T13:44:59;9.77;;;5.65;;
1651;SDS011;823;49.028;8.454;2023-04-08T13:49:59;12.13;;;4.77;;
1651;SDS011;823;49.028;8.454;2023-04-08T13:55:00;9.20;;;4.73;;
1651;SDS011;823;49.028;8.454;2023-04-08T14:00:00;8.70;;;4.97;;
1651;SDS011;823;49.028;8.454;2023-04-08T14:05:00;9.63;;;5.80;;
1651;SDS011;823;49.028;8.454;2023-04-08T14:10:01;10.17;;;5.33;;
1651;SDS011;823;49.028;8.454;2023-04-08T14:15:01;11.47;;;5.87;;
1651;SDS011;823;49.028;8.454;2023-04-08T14:20:02;11.90;;;6.27;;
1651;SDS011;823;49.028;8.454;2023-04-08T14:25:05;8.83;;;5.70;;
1651;SDS011;823;49.028;8.454;2023-04-08T14:30:06;19.73;;;6.70;;
1651;SDS011;823;49.028;8.454;2023-04-08T14:35:07;56.70;;;8.93;;
1651;SDS011;823;49.028;8.454;2023-04-08T14:40:08;12.10;;;6.13;;
1651;SDS011;823;49.028;8.454;2023-04-08T14:45:09;9.93;;;5.90;;
1651;SDS011;823;49.028;8.454;2023-04-08T14:50:10;18.90;;;5.33;;
1651;SDS011;823;49.028;8.454;2023-04-08T14:55:10;20.63;;;6.00;;
1651;SDS011;823;49.028;8.454;2023-04-08T15:00:11;8.83;;;4.93;;
1651;SDS011;823;49.028;8.454;2023-04-08T15:05:12;17.13;;;6.00;;
1651;SDS011;823;49.028;8.454;2023-04-08T15:10:12;11.90;;;5.50;;
1651;SDS011;823;49.028;8.454;2023-04-08T15:15:12;11.80;;;6.27;;
1651;SDS011;823;49.028;8.454;2023-04-08T15:20:13;10.27;;;5.75;;
1651;SDS011;823;49.028;8.454;2023-04-08T15:25:13;7.30;;;4.30;;
1651;SDS011;823;49.028;8.454;2023-04-08T15:30:15;7.83;;;4.53;;
1651;SDS011;823;49.028;8.454;2023-04-08T15:35:16;8.63;;;5.43;;
1651;SDS011;823;49.028;8.454;2023-04-08T15:40:16;10.47;;;5.30;;
1651;SDS011;823;49.028;8.454;2023-04-08T15:45:17;10.03;;;5.40;;
1651;SDS011;823;49.028;8.454;2023-04-08T15:50:17;11.23;;;4.83;;
1651;SDS011;823;49.028;8.454;2023-04-08T15:55:17;11.23;;;6.03;;
1651;SDS011;823;49.028;8.454;2023-04-08T16:00:18;9.70;;;5.77;;
1651;SDS011;823;49.028;8.454;2023-04-08T16:05:18;10.87;;;5.20;;
1651;SDS011;823;49.028;8.454;2023-04-08T16:10:18;8.17;;;4.70;;
1651;SDS011;823;49.028;8.454;2023-04-08T16:15:19;11.23;;;5.47;;
1651;SDS011;823;49.028;8.454;2023-04-08T16:20:19;8.10;;;4.53;;
1651;SDS011;823;49.028;8.454;2023-04-08T16:25:20;10.90;;;5.43;;
1651;SDS011;823;49.028;8.454;2023-04-08T16:30:21;9.97;;;6.00;;
1651;SDS011;823;49.028;8.454;2023-04-08T16:35:21;9.80;;;5.10;;
1651;SDS011;823;49.028;8.454;2023-04-08T16:40:21;9.97;;;4.70;;
1651;SDS011;823;49.028;8.454;2023-04-08T16:45:22;9.33;;;4.40;;
1651;SDS011;823;49.028;8.454;2023-04-08T16:50:23;5.83;;;3.60;;
1651;SDS011;823;49.028;8.454;2023-04-08T16:55:25;9.93;;;5.10;;
1651;SDS011;823;49.028;8.454;2023-04-08T17:00:25;8.30;;;4.53;;
1651;SDS011;823;49.028;8.454;2023-04-08T17:05:26;10.60;;;5.00;;
1651;SDS011;823;49.028;8.454;2023-04-08T17:10:26;12.70;;;6.30;;
1651;SDS011;823;49.028;8.454;2023-04-08T17:15:27;11.00;;;6.13;;
1651;SDS011;823;49.028;8.454;2023-04-08T17:20:28;8.63;;;5.37;;
1651;SDS011;823;49.028;8.454;2023-04-08T17:25:28;15.80;;;6.38;;
1651;SDS011;823;49.028;8.454;2023-04-08T17:30:28;7.85;;;4.45;;
1651;SDS011;823;49.028;8.454;2023-04-08T17:35:29;9.30;;;5.90;;
1651;SDS011;823;49.028;8.454;2023-04-08T17:40:29;8.17;;;4.57;;
1651;SDS011;823;49.028;8.454;2023-04-08T17:45:30;9.63;;;5.93;;
1651;SDS011;823;49.028;8.454;2023-04-08T17:50:31;13.50;;;4.50;;
1651;SDS011;823;49.028;8.454;2023-04-08T17:55:31;5.17;;;3.70;;
1651;SDS011;823;49.028;8.454;2023-04-08T18:00:32;11.07;;;3.83;;
1651;SDS011;823;49.028;8.454;2023-04-08T18:05:32;6.53;;;4.10;;
1651;SDS011;823;49.028;8.454;2023-04-08T18:10:33;8.33;;;3.70;;
1651;SDS011;823;49.028;8.454;2023-04-08T18:15:35;6.60;;;3.70;;
1651;SDS011;823;49.028;8.454;2023-04-08T18:20:35;6.35;;;3.40;;
1651;SDS011;823;49.028;8.454;2023-04-08T18:25:36;5.53;;;3.20;;
1651;SDS011;823;49.028;8.454;2023-04-08T18:30:36;6.20;;;3.17;;
1651;SDS011;823;49.028;8.454;2023-04-08T18:35:37;4.33;;;3.80;;
1651;SDS011;823;49.028;8.454;2023-04-08T18:40:37;11.20;;;6.05;;
1651;SDS011;823;49.028;8.454;2023-04-08T18:45:38;6.10;;;3.90;;
1651;SDS011;823;49.028;8.454;2023-04-08T18:50:39;12.97;;;7.47;;
1651;SDS011;823;49.028;8.454;2023-04-08T18:55:40;11.25;;;4.70;;
1651;SDS011;823;49.028;8.454;2023-04-08T19:00:40;6.37;;;3.83;;
1651;SDS011;823;49.028;8.454;2023-04-08T19:05:42;5.20;;;3.40;;
1651;SDS011;823;49.028;8.454;2023-04-08T19:10:42;6.60;;;4.90;;
1651;SDS011;823;49.028;8.454;2023-04-08T19:15:43;7.57;;;4.43;;
1651;SDS011;823;49.028;8.454;2023-04-08T19:20:43;7.18;;;4.53;;
1651;SDS011;823;49.028;8.454;2023-04-08T19:25:45;5.93;;;4.20;;
1651;SDS011;823;49.028;8.454;2023-04-08T19:30:46;5.07;;;3.63;;
1651;SDS011;823;49.028;8.454;2023-04-08T19:35:47;5.90;;;3.90;;
1651;SDS011;823;49.028;8.454;2023-04-08T19:40:48;6.23;;;3.90;;
1651;SDS011;823;49.028;8.454;2023-04-08T19:45:52;9.20;;;4.50;;
1651;SDS011;823;49.028;8.454;2023-04-08T19:50:53;10.20;;;4.40;;
1651;SDS011;823;49.028;8.454;2023-04-08T19:55:57;7.83;;;5.00;;
1651;SDS011;823;49.028;8.454;2023-04-08T20:00:59;6.40;;;4.80;;
1651;SDS011;823;49.028;8.454;2023-04-08T20:05:59;5.43;;;3.45;;
1651;SDS011;823;49.028;8.454;2023-04-08T20:11:00;7.73;;;3.73;;
1651;SDS011;823;49.028;8.454;2023-04-08T20:16:01;7.20;;;4.37;;
1651;SDS011;823;49.028;8.454;2023-04-08T20:21:02;7.57;;;4.70;;
1651;SDS011;823;49.028;8.454;2023-04-08T20:26:02;10.37;;;5.77;;
1651;SDS011;823;49.028;8.454;2023-04-08T20:31:02;7.90;;;4.50;;
1651;SDS011;823;49.028;8.454;2023-04-08T20:36:03;6.87;;;4.30;;
1651;SDS011;823;49.028;8.454;2023-04-08T20:41:03;5.43;;;3.50;;
1651;SDS011;823;49.028;8.454;2023-04-08T20:46:05;9.53;;;4.20;;
1651;SDS011;823;49.028;8.454;2023-04-08T20:51:05;6.90;;;4.13;;
1651;SDS011;823;49.028;8.454;2023-04-08T20:56:06;13.60;;;3.90;;
1651;SDS011;823;49.028;8.454;2023-04-08T21:01:06;5.63;;;3.60;;
1651;SDS011;823;49.028;8.454;2023-04-08T21:06:06;5.17;;;4.10;;
1651;SDS011;823;49.028;8.454;2023-04-08T21:11:07;5.43;;;3.83;;
1651;SDS011;823;49.028;8.454;2023-04-08T21:16:07;13.47;;;6.23;;
1651;SDS011;823;49.028;8.454;2023-04-08T21:21:10;9.03;;;5.90;;
1651;SDS011;823;49.028;8.454;2023-04-08T21:26:11;8.87;;;4.70;;
1651;SDS011;823;49.028;8.454;2023-04-08T21:31:12;7.30;;;4.30;;
1651;SDS011;823;49.028;8.454;2023-04-08T21:36:12;8.73;;;5.40;;
1651;SDS011;823;49.028;8.454;2023-04-08T21:41:13;8.48;;;4.40;;
1651;SDS011;823;49.028;8.454;2023-04-08T21:46:13;6.27;;;4.07;;
1651;SDS011;823;49.028;8.454;2023-04-08T21:51:14;6.93;;;4.70;;
1651;SDS011;823;49.028;8.454;2023-04-08T21:56:15;9.20;;;5.67;;
1651;SDS011;823;49.028;8.454;2023-04-08T22:01:16;9.10;;;4.70;;
1651;SDS011;823;49.028;8.454;2023-04-08T22:06:16;7.23;;;4.03;;
1651;SDS011;823;49.028;8.454;2023-04-08T22:11:16;8.77;;;4.63;;
1651;SDS011;823;49.028;8.454;2023-04-08T22:16:17;8.47;;;5.10;;
1651;SDS011;823;49.028;8.454;2023-04-08T22:26:18;7.13;;;4.50;;
1651;SDS011;823;49.028;8.454;2023-04-08T22:31:18;8.93;;;4.73;;
1651;SDS011;823;49.028;8.454;2023-04-08T22:36:18;5.73;;;4.30;;
1651;SDS011;823;49.028;8.454;2023-04-08T22:41:19;6.40;;;4.07;;
1651;SDS011;823;49.028;8.454;2023-04-08T22:46:21;4.10;;;3.70;;
1651;SDS011;823;49.028;8.454;2023-04-08T22:51:21;6.77;;;3.90;;
1651;SDS011;823;49.028;8.454;2023-04-08T22:56:21;7.60;;;4.90;;
1651;SDS011;823;49.028;8.454;2023-04-08T23:01:22;7.20;;;4.20;;
1651;SDS011;823;49.028;8.454;2023-04-08T23:06:22;9.97;;;5.20;;
1651;SDS011;823;49.028;8.454;2023-04-08T23:11:23;7.27;;;4.90;;
1651;SDS011;823;49.028;8.454;2023-04-08T23:16:23;8.17;;;4.70;;
1651;SDS011;823;49.028;8.454;2023-04-08T23:21:24;9.90;;;5.30;;
1651;SDS011;823;49.028;8.454;2023-04-08T23:26:25;10.10;;;5.47;;
1651;SDS011;823;49.028;8.454;2023-04-08T23:31:25;7.80;;;4.63;;
1651;SDS011;823;49.028;8.454;2023-04-08T23:36:25;9.90;;;5.50;;
1651;SDS011;823;49.028;8.454;2023-04-08T23:41:26;9.80;;;5.60;;
1651;SDS011;823;49.028;8.454;2023-04-08T23:46:26;9.10;;;5.90;;
1651;SDS011;823;49.028;8.454;2023-04-08T23:51:27;8.10;;;4.33;;
1651;SDS011;823;49.028;8.454;2023-04-08T23:56:27;14.90;;;5.27;;
